createdAt,value
2022-12-31T00:00:29.645Z,5.70
2022-12-31T00:03:33.376Z,5.51
2022-12-31T00:06:36.317Z,5.49
2022-12-31T00:09:38.966Z,5.66
2022-12-31T00:12:41.370Z,5.62
2022-12-31T00:15:44.986Z,5.63
2022-12-31T00:18:52.588Z,5.49
2022-12-31T00:21:55.197Z,5.48
2022-12-31T00:24:57.503Z,5.62
2022-12-31T00:28:00.110Z,5.52
2022-12-31T00:31:17.190Z,5.60
2022-12-31T00:34:20.794Z,5.45
2022-12-31T00:37:23.105Z,5.43
2022-12-31T00:40:25.716Z,5.45
2022-12-31T00:43:28.065Z,5.57
2022-12-31T00:46:32.171Z,5.53
2022-12-31T00:49:34.491Z,5.56
2022-12-31T00:52:37.210Z,5.56
2022-12-31T00:55:39.520Z,5.55
2022-12-31T00:58:43.384Z,5.43
2022-12-31T01:01:45.966Z,5.44
2022-12-31T01:04:48.879Z,5.49
2022-12-31T01:07:51.154Z,5.41
2022-12-31T01:11:17.627Z,5.55
2022-12-31T01:14:20.696Z,5.44
2022-12-31T01:17:23.378Z,5.34
2022-12-31T01:20:25.654Z,5.52
2022-12-31T01:23:28.269Z,5.53
2022-12-31T01:26:31.982Z,5.36
2022-12-31T01:29:34.560Z,5.47
2022-12-31T01:32:36.818Z,5.50
2022-12-31T01:35:39.986Z,5.51
2022-12-31T01:38:42.940Z,5.36
2022-12-31T01:41:47.949Z,5.30
2022-12-31T01:44:55.418Z,5.54
2022-12-31T01:48:00.187Z,5.50
2022-12-31T01:51:02.499Z,5.58
2022-12-31T01:54:08.735Z,5.47
2022-12-31T01:57:12.046Z,5.44
2022-12-31T02:00:15.597Z,5.45
2022-12-31T02:03:22.742Z,5.60
2022-12-31T02:06:35.113Z,5.57
2022-12-31T02:09:40.185Z,5.64
2022-12-31T02:12:42.607Z,5.61
2022-12-31T02:16:34.508Z,5.67
2022-12-31T02:20:14.086Z,5.26
2022-12-31T02:23:34.888Z,5.69
2022-12-31T02:26:52.150Z,5.70
2022-12-31T02:29:57.807Z,5.71
2022-12-31T02:33:19.286Z,5.73
2022-12-31T02:36:28.809Z,5.72
2022-12-31T02:39:32.266Z,5.76
2022-12-31T02:42:34.891Z,5.65
2022-12-31T02:45:43.189Z,5.65
2022-12-31T02:48:52.879Z,5.76
2022-12-31T02:52:29.536Z,5.69
2022-12-31T02:55:48.975Z,5.74
2022-12-31T02:59:27.073Z,5.74
2022-12-31T03:02:33.464Z,5.71
2022-12-31T03:05:41.622Z,5.76
2022-12-31T03:09:02.542Z,5.80
2022-12-31T03:12:26.873Z,5.67
2022-12-31T03:15:32.421Z,5.69
2022-12-31T03:18:54.734Z,5.78
2022-12-31T03:22:16.019Z,5.71
2022-12-31T03:25:35.043Z,5.80
2022-12-31T03:28:40.192Z,5.67
2022-12-31T03:31:42.569Z,5.84
2022-12-31T03:34:45.166Z,5.86
2022-12-31T03:37:49.378Z,5.83
2022-12-31T03:40:52.992Z,5.83
2022-12-31T03:43:55.292Z,5.83
2022-12-31T03:46:57.862Z,5.63
2022-12-31T03:50:00.230Z,5.78
2022-12-31T03:53:03.292Z,5.54
2022-12-31T03:56:05.884Z,5.68
2022-12-31T03:59:08.504Z,5.71
2022-12-31T04:02:11.207Z,5.72
2022-12-31T04:05:14.529Z,5.89
2022-12-31T04:08:16.916Z,5.88
2022-12-31T04:11:21.177Z,5.86
2022-12-31T04:14:23.575Z,5.88
2022-12-31T04:17:28.893Z,5.90
2022-12-31T04:20:31.282Z,5.72
2022-12-31T04:23:33.950Z,5.72
2022-12-31T04:26:37.259Z,5.85
2022-12-31T04:29:40.115Z,5.81
2022-12-31T04:32:44.815Z,5.83
2022-12-31T04:35:47.497Z,5.77
2022-12-31T04:38:49.823Z,5.94
2022-12-31T04:41:53.148Z,5.94
2022-12-31T04:44:57.112Z,5.93
2022-12-31T04:47:59.754Z,5.91
2022-12-31T04:51:02.092Z,5.73
2022-12-31T04:54:05.335Z,5.74
2022-12-31T04:57:07.647Z,5.90
2022-12-31T05:00:10.894Z,5.73
2022-12-31T05:03:13.283Z,5.85
2022-12-31T05:06:18.654Z,5.87
2022-12-31T05:09:24.034Z,5.92
2022-12-31T05:12:26.745Z,5.91
2022-12-31T05:15:29.356Z,5.78
2022-12-31T05:18:33.022Z,5.92
2022-12-31T05:21:35.637Z,5.74
2022-12-31T05:24:38.353Z,5.99
2022-12-31T05:27:40.753Z,5.95
2022-12-31T05:30:44.680Z,5.86
2022-12-31T05:33:46.990Z,5.92
2022-12-31T05:36:49.546Z,5.85
2022-12-31T05:39:52.280Z,5.93
2022-12-31T05:42:55.215Z,6.01
2022-12-31T05:46:00.024Z,5.85
2022-12-31T05:49:02.658Z,6.00
2022-12-31T05:52:08.301Z,5.91
2022-12-31T05:55:12.330Z,6.01
2022-12-31T05:58:16.296Z,5.81
2022-12-31T06:01:19.166Z,5.85
2022-12-31T06:04:22.000Z,5.86
2022-12-31T06:07:24.349Z,5.89
2022-12-31T06:10:27.047Z,5.40
2022-12-31T06:13:29.547Z,6.01
2022-12-31T06:16:32.145Z,6.00
2022-12-31T06:19:35.551Z,5.80
2022-12-31T06:22:38.170Z,5.97
2022-12-31T06:25:40.577Z,5.88
2022-12-31T06:28:43.278Z,5.92
2022-12-31T06:31:45.704Z,6.03
2022-12-31T06:34:48.322Z,5.88
2022-12-31T06:37:52.274Z,5.86
2022-12-31T06:40:54.977Z,6.01
2022-12-31T06:43:57.511Z,5.81
2022-12-31T06:47:01.262Z,5.83
2022-12-31T06:50:03.684Z,5.96
2022-12-31T06:53:06.940Z,5.88
2022-12-31T06:56:20.834Z,5.82
2022-12-31T06:59:27.424Z,5.83
2022-12-31T07:02:51.510Z,6.01
2022-12-31T07:06:13.709Z,6.02
2022-12-31T07:09:27.809Z,5.99
2022-12-31T07:12:54.853Z,6.04
2022-12-31T07:16:16.621Z,6.08
2022-12-31T07:19:37.345Z,5.87
2022-12-31T07:22:40.040Z,6.14
2022-12-31T07:25:54.224Z,6.08
2022-12-31T07:29:15.431Z,5.98
2022-12-31T07:32:39.864Z,5.94
2022-12-31T07:35:56.306Z,6.13
2022-12-31T07:39:11.839Z,6.10
2022-12-31T07:42:14.085Z,6.12
2022-12-31T07:45:37.821Z,6.21
2022-12-31T07:48:40.356Z,6.19
2022-12-31T07:51:43.711Z,6.13
2022-12-31T07:54:46.662Z,6.08
2022-12-31T07:58:01.775Z,5.97
2022-12-31T08:01:05.531Z,6.07
2022-12-31T08:04:48.158Z,6.35
2022-12-31T08:07:59.377Z,6.44
2022-12-31T08:11:39.888Z,6.49
2022-12-31T08:14:48.655Z,6.54
2022-12-31T08:17:51.520Z,6.57
2022-12-31T08:21:35.070Z,6.62
2022-12-31T08:24:51.765Z,6.65
2022-12-31T08:28:12.422Z,6.52
2022-12-31T08:31:28.480Z,6.59
2022-12-31T08:34:52.176Z,6.82
2022-12-31T08:38:16.385Z,6.76
2022-12-31T08:41:43.452Z,6.93
2022-12-31T08:44:58.237Z,7.01
2022-12-31T08:48:02.965Z,7.04
2022-12-31T08:51:06.939Z,7.13
2022-12-31T08:54:11.812Z,7.15
2022-12-31T08:57:34.685Z,7.29
2022-12-31T09:00:40.693Z,7.19
2022-12-31T09:04:08.912Z,7.45
2022-12-31T09:07:14.917Z,7.59
2022-12-31T09:10:20.366Z,7.66
2022-12-31T09:14:01.410Z,7.71
2022-12-31T09:17:32.815Z,7.70
2022-12-31T09:20:44.734Z,7.67
2022-12-31T09:23:50.477Z,7.63
2022-12-31T09:27:25.443Z,7.37
2022-12-31T09:30:48.725Z,7.72
2022-12-31T09:33:57.977Z,7.59
2022-12-31T09:37:06.881Z,7.56
2022-12-31T09:40:43.198Z,7.56
2022-12-31T09:44:07.444Z,7.68
2022-12-31T09:47:34.421Z,7.57
2022-12-31T09:50:59.425Z,7.69
2022-12-31T09:54:22.622Z,7.68
2022-12-31T09:57:48.886Z,7.65
2022-12-31T10:01:02.237Z,7.72
2022-12-31T10:04:30.706Z,7.77
2022-12-31T10:07:53.600Z,7.83
2022-12-31T10:11:05.322Z,7.84
2022-12-31T10:14:47.136Z,7.76
2022-12-31T10:18:23.360Z,7.75
2022-12-31T10:21:52.369Z,7.93
2022-12-31T10:25:16.627Z,7.95
2022-12-31T10:28:40.959Z,7.93
2022-12-31T10:32:13.216Z,8.02
2022-12-31T10:35:40.246Z,7.95
2022-12-31T10:39:24.825Z,8.13
2022-12-31T10:43:19.919Z,8.13
2022-12-31T10:46:53.696Z,8.09
2022-12-31T10:50:22.354Z,8.06
2022-12-31T10:53:57.033Z,7.95
2022-12-31T10:57:10.137Z,7.68
2022-12-31T11:00:46.190Z,7.96
2022-12-31T11:04:38.436Z,7.91
2022-12-31T11:07:43.843Z,7.92
2022-12-31T11:10:56.028Z,7.83
2022-12-31T11:14:11.116Z,7.82
2022-12-31T11:17:37.878Z,7.87
2022-12-31T11:21:06.965Z,7.84
2022-12-31T11:24:38.616Z,7.82
2022-12-31T11:27:53.511Z,7.89
2022-12-31T11:31:41.133Z,7.85
2022-12-31T11:35:24.599Z,7.87
2022-12-31T11:38:39.978Z,7.87
2022-12-31T11:41:54.712Z,7.85
2022-12-31T11:45:14.937Z,7.94
2022-12-31T11:48:39.517Z,7.64
2022-12-31T11:52:24.831Z,8.00
2022-12-31T11:55:38.871Z,8.04
2022-12-31T11:58:47.850Z,7.90
2022-12-31T12:02:00.912Z,7.95
2022-12-31T12:05:11.146Z,8.00
2022-12-31T12:08:19.638Z,7.99
2022-12-31T12:11:29.269Z,7.86
2022-12-31T12:14:36.269Z,8.01
2022-12-31T12:17:39.346Z,8.09
2022-12-31T12:20:46.450Z,8.06
2022-12-31T12:23:57.995Z,8.13
2022-12-31T12:27:00.397Z,8.00
2022-12-31T12:30:29.201Z,8.30
2022-12-31T12:33:44.660Z,8.35
2022-12-31T12:36:48.211Z,8.41
2022-12-31T12:40:02.251Z,8.51
2022-12-31T12:43:06.654Z,8.54
2022-12-31T12:46:19.813Z,8.69
2022-12-31T12:49:29.167Z,8.71
2022-12-31T12:52:59.226Z,8.58
2022-12-31T12:56:39.066Z,8.33
2022-12-31T13:00:07.687Z,8.74
2022-12-31T13:03:20.155Z,8.77
2022-12-31T13:06:31.416Z,8.83
2022-12-31T13:10:06.463Z,8.82
2022-12-31T13:13:34.125Z,8.74
2022-12-31T13:16:59.852Z,8.75
2022-12-31T13:20:15.332Z,8.73
2022-12-31T13:23:44.051Z,8.71
2022-12-31T13:27:05.496Z,8.59
2022-12-31T13:30:19.215Z,8.69
2022-12-31T13:33:55.816Z,8.59
2022-12-31T13:37:06.119Z,8.67
2022-12-31T13:40:27.142Z,8.53
2022-12-31T13:43:48.813Z,8.64
2022-12-31T13:47:40.896Z,8.64
2022-12-31T13:50:51.881Z,8.65
2022-12-31T13:54:10.731Z,8.64
2022-12-31T13:57:43.073Z,8.62
2022-12-31T14:00:53.134Z,8.60
2022-12-31T14:04:01.710Z,8.60
2022-12-31T14:07:16.004Z,8.65
2022-12-31T14:10:30.654Z,8.55
2022-12-31T14:13:48.252Z,8.47
2022-12-31T14:17:01.904Z,8.71
2022-12-31T14:20:35.095Z,8.71
2022-12-31T14:24:13.798Z,8.55
2022-12-31T14:27:24.004Z,8.58
2022-12-31T14:30:32.358Z,8.39
2022-12-31T14:34:10.886Z,8.56
2022-12-31T14:37:31.416Z,8.64
2022-12-31T14:40:58.379Z,8.66
2022-12-31T14:44:44.941Z,8.71
2022-12-31T14:48:20.061Z,8.67
2022-12-31T14:51:28.646Z,8.64
2022-12-31T14:54:38.451Z,8.64
2022-12-31T14:58:27.129Z,8.32
2022-12-31T15:01:14.854Z,8.55
2022-12-31T15:04:34.027Z,8.53
2022-12-31T15:07:48.097Z,8.51
2022-12-31T15:11:11.859Z,8.51
2022-12-31T15:14:37.455Z,8.37
2022-12-31T15:17:47.247Z,8.46
2022-12-31T15:21:13.945Z,8.36
2022-12-31T15:24:27.819Z,8.30
2022-12-31T15:27:33.143Z,8.36
2022-12-31T15:30:45.207Z,8.35
2022-12-31T15:34:05.693Z,8.33
2022-12-31T15:37:35.395Z,8.20
2022-12-31T15:40:46.422Z,8.34
2022-12-31T15:44:06.581Z,8.21
2022-12-31T15:47:36.736Z,8.38
2022-12-31T15:50:39.753Z,8.19
2022-12-31T15:53:47.025Z,8.42
2022-12-31T15:56:50.205Z,8.44
2022-12-31T15:59:59.373Z,8.33
2022-12-31T16:03:02.548Z,8.47
2022-12-31T16:06:15.941Z,8.52
2022-12-31T16:09:27.902Z,8.37
2022-12-31T16:12:40.776Z,8.52
2022-12-31T16:15:52.020Z,8.58
2022-12-31T16:18:56.238Z,8.60
2022-12-31T16:22:14.081Z,8.64
2022-12-31T16:25:36.557Z,8.53
2022-12-31T16:28:38.912Z,8.63
2022-12-31T16:31:44.583Z,8.52
2022-12-31T16:34:46.974Z,8.55
2022-12-31T16:38:19.049Z,8.66
2022-12-31T16:41:22.247Z,8.54
2022-12-31T16:44:29.677Z,8.66
2022-12-31T16:47:36.045Z,8.69
2022-12-31T16:50:39.041Z,8.48
2022-12-31T16:53:42.221Z,8.59
2022-12-31T16:56:45.103Z,8.41
2022-12-31T16:59:56.213Z,8.49
2022-12-31T17:03:18.024Z,8.46
2022-12-31T17:06:21.658Z,8.21
2022-12-31T17:09:33.574Z,8.37
2022-12-31T17:13:25.641Z,8.30
2022-12-31T17:16:08.913Z,8.29
2022-12-31T17:19:25.545Z,8.28
2022-12-31T17:22:40.490Z,8.09
2022-12-31T17:25:42.897Z,8.04
2022-12-31T17:28:49.326Z,8.01
2022-12-31T17:32:36.589Z,8.21
2022-12-31T17:35:43.915Z,8.19
2022-12-31T17:38:46.422Z,8.20
2022-12-31T17:41:52.770Z,8.17
2022-12-31T17:44:59.644Z,8.11
2022-12-31T17:48:02.807Z,8.13
2022-12-31T17:51:05.439Z,8.12
2022-12-31T17:54:16.027Z,8.09
2022-12-31T17:57:26.138Z,7.99
2022-12-31T18:00:28.897Z,7.90
2022-12-31T18:03:31.616Z,7.92
2022-12-31T18:06:33.906Z,7.91
2022-12-31T18:09:36.537Z,7.89
2022-12-31T18:12:39.591Z,7.87
2022-12-31T18:15:42.266Z,7.86
2022-12-31T18:18:45.448Z,7.99
2022-12-31T18:21:48.267Z,7.50
2022-12-31T18:24:54.391Z,7.93
2022-12-31T18:27:57.495Z,7.92
2022-12-31T18:31:00.109Z,7.75
2022-12-31T18:34:09.289Z,7.84
2022-12-31T18:37:21.689Z,7.85
2022-12-31T18:40:25.528Z,7.78
2022-12-31T18:43:27.969Z,7.76
2022-12-31T18:46:30.845Z,7.88
2022-12-31T18:49:41.377Z,7.88
2022-12-31T18:52:44.271Z,7.85
2022-12-31T18:55:55.524Z,7.81
2022-12-31T18:58:59.791Z,7.64
2022-12-31T19:02:02.137Z,7.71
2022-12-31T19:05:26.402Z,7.80
2022-12-31T19:08:28.790Z,7.73
2022-12-31T19:11:33.050Z,7.79
2022-12-31T19:14:35.629Z,7.72
2022-12-31T19:17:38.287Z,7.71
2022-12-31T19:20:42.011Z,7.79
2022-12-31T19:23:44.989Z,7.71
2022-12-31T19:26:47.813Z,7.79
2022-12-31T19:29:50.480Z,7.78
2022-12-31T19:32:53.249Z,7.72
2022-12-31T19:35:55.880Z,7.76
2022-12-31T19:38:58.282Z,7.76
2022-12-31T19:42:00.946Z,7.72
2022-12-31T19:45:03.718Z,7.60
2022-12-31T19:48:06.480Z,7.66
2022-12-31T19:51:12.858Z,7.50
2022-12-31T19:54:17.931Z,7.62
2022-12-31T19:57:22.445Z,7.40
2022-12-31T20:00:25.198Z,7.50
2022-12-31T20:03:28.222Z,7.50
2022-12-31T20:06:31.274Z,7.44
2022-12-31T20:09:33.898Z,7.43
2022-12-31T20:12:42.223Z,7.40
2022-12-31T20:15:47.905Z,7.21
2022-12-31T20:18:50.782Z,7.31
2022-12-31T20:21:53.645Z,7.39
2022-12-31T20:24:56.253Z,7.42
2022-12-31T20:27:58.882Z,7.41
2022-12-31T20:31:08.961Z,7.21
2022-12-31T20:34:11.825Z,7.33
2022-12-31T20:37:14.165Z,7.17
2022-12-31T20:40:17.202Z,7.34
2022-12-31T20:43:19.532Z,7.33
2022-12-31T20:46:24.821Z,7.27
2022-12-31T20:50:00.775Z,7.26
2022-12-31T20:52:50.076Z,7.29
2022-12-31T20:55:52.432Z,7.27
2022-12-31T20:58:55.359Z,7.10
2022-12-31T21:02:20.980Z,6.73
2022-12-31T21:05:20.483Z,7.23
2022-12-31T21:08:23.094Z,7.20
2022-12-31T21:11:45.219Z,7.24
2022-12-31T21:14:48.411Z,7.13
2022-12-31T21:17:54.809Z,7.23
2022-12-31T21:21:00.610Z,7.21
2022-12-31T21:24:03.554Z,7.24
2022-12-31T21:27:06.630Z,7.20
2022-12-31T21:30:19.541Z,7.20
2022-12-31T21:33:22.346Z,7.16
2022-12-31T21:36:25.299Z,7.05
2022-12-31T21:39:27.775Z,6.92
2022-12-31T21:42:30.397Z,6.89
2022-12-31T21:45:32.941Z,7.05
2022-12-31T21:48:35.602Z,7.06
2022-12-31T21:51:57.971Z,7.06
2022-12-31T21:55:21.082Z,7.00
2022-12-31T21:58:26.463Z,6.96
2022-12-31T22:01:48.968Z,6.97
2022-12-31T22:05:17.369Z,6.99
2022-12-31T22:08:14.137Z,6.87
2022-12-31T22:11:18.330Z,6.85
2022-12-31T22:14:20.698Z,6.80
2022-12-31T22:17:23.412Z,7.00
2022-12-31T22:20:27.498Z,6.91
2022-12-31T22:23:32.246Z,6.90
2022-12-31T22:26:34.786Z,6.72
2022-12-31T22:29:37.446Z,6.82
2022-12-31T22:32:39.786Z,6.75
2022-12-31T22:35:42.512Z,6.88
2022-12-31T22:38:46.115Z,6.89
2022-12-31T22:41:48.751Z,6.68
2022-12-31T22:44:51.099Z,6.83
2022-12-31T22:47:53.768Z,6.70
2022-12-31T22:50:57.161Z,6.70
2022-12-31T22:53:59.797Z,6.68
2022-12-31T22:57:02.128Z,6.82
2022-12-31T23:00:09.979Z,6.71
2022-12-31T23:03:12.861Z,6.84
2022-12-31T23:06:16.467Z,6.81
2022-12-31T23:09:37.540Z,6.80
2022-12-31T23:12:40.137Z,6.80
2022-12-31T23:16:03.537Z,6.78
2022-12-31T23:19:24.962Z,6.71
2022-12-31T23:22:45.478Z,6.54
2022-12-31T23:25:50.552Z,6.63
2022-12-31T23:28:53.525Z,6.74
2022-12-31T23:31:59.961Z,6.53
2022-12-31T23:35:09.378Z,6.58
2022-12-31T23:38:13.727Z,6.68
2022-12-31T23:41:19.840Z,6.66
2022-12-31T23:44:22.453Z,6.64
2022-12-31T23:47:25.003Z,6.58
2022-12-31T23:50:27.736Z,6.48
2022-12-31T23:53:33.177Z,6.65
2022-12-31T23:56:35.967Z,6.48
2022-12-31T23:59:38.308Z,6.63
